createdAt,value
2023-05-12T00:02:27.024Z,101515.13
2023-05-12T00:04:55.201Z,101519.72
2023-05-12T00:07:23.021Z,101508.28
2023-05-12T00:09:50.810Z,101508.75
2023-05-12T00:12:20.057Z,101517.47
2023-05-12T00:14:47.990Z,101522.06
2023-05-12T00:17:15.744Z,101515.00
2023-05-12T00:19:44.392Z,101517.69
2023-05-12T00:22:12.466Z,101515.00
2023-05-12T00:24:40.818Z,101512.28
2023-05-12T00:27:08.618Z,101509.81
2023-05-12T00:29:37.873Z,101503.81
2023-05-12T00:32:07.157Z,101511.34
2023-05-12T00:34:34.939Z,101510.75
2023-05-12T00:37:02.729Z,101504.75
2023-05-12T00:39:30.602Z,101508.50
2023-05-12T00:41:59.180Z,101515.00
2023-05-12T00:44:27.040Z,101515.00
2023-05-12T00:46:56.168Z,101505.22
2023-05-12T00:49:26.876Z,101507.94
2023-05-12T00:51:55.773Z,101506.03
2023-05-12T00:54:23.934Z,101503.34
2023-05-12T00:56:52.332Z,101510.63
2023-05-12T00:59:20.334Z,101505.47
2023-05-12T01:01:49.646Z,101500.28
2023-05-12T01:04:18.931Z,101501.34
2023-05-12T01:06:50.937Z,101499.69
2023-05-12T01:09:19.244Z,101500.75
2023-05-12T01:11:47.333Z,101500.75
2023-05-12T01:14:15.085Z,101500.16
2023-05-12T01:16:49.399Z,101499.31
2023-05-12T01:19:33.716Z,101489.56
2023-05-12T01:22:02.316Z,101498.97
2023-05-12T01:24:34.266Z,101495.44
2023-05-12T01:27:04.496Z,101491.69
2023-05-12T01:29:33.593Z,101492.72
2023-05-12T01:32:01.785Z,101489.22
2023-05-12T01:34:29.591Z,101486.72
2023-05-12T01:36:57.354Z,101478.13
2023-05-12T01:39:25.154Z,101480.50
2023-05-12T01:41:52.971Z,101480.59
2023-05-12T01:44:22.125Z,101483.44
2023-05-12T01:46:50.169Z,101485.31
2023-05-12T01:49:17.989Z,101480.97
2023-05-12T01:51:45.736Z,101480.38
2023-05-12T01:54:13.522Z,101475.19
2023-05-12T01:56:41.437Z,101473.31
2023-05-12T01:59:09.694Z,101477.06
2023-05-12T02:01:38.924Z,101476.25
2023-05-12T02:04:09.256Z,101470.47
2023-05-12T02:06:37.431Z,101471.91
2023-05-12T02:09:05.523Z,101467.53
2023-05-12T02:11:33.358Z,101468.00
2023-05-12T02:14:01.128Z,101464.94
2023-05-12T02:16:28.992Z,101458.13
2023-05-12T02:18:58.292Z,101460.47
2023-05-12T02:21:26.297Z,101456.94
2023-05-12T02:23:54.140Z,101450.94
2023-05-12T02:26:22.091Z,101452.00
2023-05-12T02:28:49.899Z,101453.06
2023-05-12T02:31:17.741Z,101448.66
2023-05-12T02:33:45.483Z,101449.50
2023-05-12T02:36:14.633Z,101437.03
2023-05-12T02:38:42.496Z,101441.38
2023-05-12T02:41:10.372Z,101443.25
2023-05-12T02:43:38.169Z,101439.13
2023-05-12T02:46:06.095Z,101443.13
2023-05-12T02:48:33.960Z,101442.31
2023-05-12T02:51:01.778Z,101439.59
2023-05-12T02:53:31.086Z,101433.38
2023-05-12T02:55:59.055Z,101432.53
2023-05-12T02:58:26.976Z,101430.06
2023-05-12T03:01:06.794Z,101429.25
2023-05-12T03:03:38.633Z,101426.78
2023-05-12T03:06:07.222Z,101423.84
2023-05-12T03:08:36.624Z,101421.38
2023-05-12T03:11:04.528Z,101418.66
2023-05-12T03:13:32.316Z,101420.78
2023-05-12T03:16:01.686Z,101418.06
2023-05-12T03:18:29.995Z,101417.25
2023-05-12T03:20:57.957Z,101416.44
2023-05-12T03:23:25.769Z,101413.72
2023-05-12T03:25:55.476Z,101416.66
2023-05-12T03:28:24.850Z,101400.44
2023-05-12T03:30:52.665Z,101399.03
2023-05-12T03:33:20.496Z,101393.84
2023-05-12T03:35:48.319Z,101387.63
2023-05-12T03:38:16.093Z,101398.44
2023-05-12T03:40:43.884Z,101386.78
2023-05-12T03:43:13.038Z,101387.03
2023-05-12T03:45:40.890Z,101383.28
2023-05-12T03:48:08.850Z,101388.69
2023-05-12T03:50:36.744Z,101380.56
2023-05-12T03:53:04.539Z,101378.91
2023-05-12T03:55:32.321Z,101387.03
2023-05-12T03:58:00.224Z,101393.25
2023-05-12T04:00:29.529Z,101377.28
2023-05-12T04:02:57.404Z,101383.13
2023-05-12T04:05:25.365Z,101379.63
2023-05-12T04:07:53.320Z,101376.91
2023-05-12T04:10:21.551Z,101376.09
2023-05-12T04:12:49.440Z,101372.56
2023-05-12T04:15:17.653Z,101373.63
2023-05-12T04:17:46.858Z,101373.84
2023-05-12T04:20:14.672Z,101373.84
2023-05-12T04:22:42.427Z,101370.31
2023-05-12T04:25:11.050Z,101366.78
2023-05-12T04:27:38.984Z,101372.19
2023-05-12T04:30:08.186Z,101372.44
2023-05-12T04:32:36.376Z,101370.56
2023-05-12T04:35:06.201Z,101364.56
2023-05-12T04:37:34.482Z,101376.44
2023-05-12T04:40:02.558Z,101375.59
2023-05-12T04:42:30.487Z,101372.91
2023-05-12T04:44:58.282Z,101376.44
2023-05-12T04:47:26.097Z,101372.91
2023-05-12T04:49:53.877Z,101374.78
2023-05-12T04:52:24.778Z,101377.47
2023-05-12T04:54:53.370Z,101379.34
2023-05-12T04:57:24.158Z,101376.66
2023-05-12T04:59:51.943Z,101378.53
2023-05-12T05:02:19.778Z,101379.34
2023-05-12T05:04:47.607Z,101385.81
2023-05-12T05:07:15.403Z,101382.28
2023-05-12T05:09:44.521Z,101389.34
2023-05-12T05:12:12.379Z,101387.69
2023-05-12T05:14:40.168Z,101392.28
2023-05-12T05:17:08.168Z,101393.34
2023-05-12T05:19:49.760Z,101396.03
2023-05-12T05:22:22.529Z,101394.38
2023-05-12T05:24:51.985Z,101404.38
2023-05-12T05:27:20.000Z,101401.91
2023-05-12T05:29:47.791Z,101401.09
2023-05-12T05:32:15.815Z,101400.25
2023-05-12T05:34:43.665Z,101399.44
2023-05-12T05:37:11.625Z,101403.78
2023-05-12T05:39:39.448Z,101396.72
2023-05-12T05:42:08.804Z,101405.44
2023-05-12T05:44:36.595Z,101418.13
2023-05-12T05:47:04.461Z,101414.34
2023-05-12T05:49:32.369Z,101413.31
2023-05-12T05:52:00.210Z,101424.94
2023-05-12T05:54:28.004Z,101423.28
2023-05-12T05:56:56.043Z,101423.28
2023-05-12T05:59:25.513Z,101429.53
2023-05-12T06:01:53.503Z,101436.81
2023-05-12T06:04:21.368Z,101439.50
2023-05-12T06:06:49.454Z,101441.38
2023-05-12T06:09:17.333Z,101437.84
2023-05-12T06:11:45.076Z,101444.09
2023-05-12T06:14:12.868Z,101446.56
2023-05-12T06:16:42.138Z,101448.06
2023-05-12T06:19:10.603Z,101455.13
2023-05-12T06:21:38.688Z,101464.88
2023-05-12T06:24:06.840Z,101460.31
2023-05-12T06:26:34.759Z,101468.41
2023-05-12T06:29:02.610Z,101474.66
2023-05-12T06:31:30.499Z,101471.72
2023-05-12T06:33:59.765Z,101458.28
2023-05-12T06:36:28.860Z,101476.88
2023-05-12T06:38:56.743Z,101485.00
2023-05-12T06:41:25.342Z,101473.13
2023-05-12T06:43:53.463Z,101469.91
2023-05-12T06:46:21.266Z,101475.00
2023-05-12T06:48:49.167Z,101485.81
2023-05-12T06:51:18.595Z,101489.34
2023-05-12T06:53:46.402Z,101491.81
2023-05-12T06:56:16.968Z,101484.53
2023-05-12T06:58:44.846Z,101494.28
2023-05-12T07:01:12.864Z,101508.88
2023-05-12T07:03:40.684Z,101497.81
2023-05-12T07:06:08.860Z,101500.53
2023-05-12T07:08:37.970Z,101499.69
2023-05-12T07:11:05.810Z,101511.09
2023-05-12T07:13:33.626Z,101511.94
2023-05-12T07:16:01.570Z,101514.63
2023-05-12T07:18:29.348Z,101510.06
2023-05-12T07:20:57.437Z,101511.72
2023-05-12T07:23:25.276Z,101513.34
2023-05-12T07:25:54.426Z,101516.88
2023-05-12T07:28:22.225Z,101524.75
2023-05-12T07:30:50.142Z,101526.41
2023-05-12T07:33:17.974Z,101525.34
2023-05-12T07:35:47.001Z,101525.13
2023-05-12T07:38:15.458Z,101527.84
2023-05-12T07:40:43.252Z,101522.19
2023-05-12T07:43:12.411Z,101527.59
2023-05-12T07:45:40.326Z,101526.78
2023-05-12T07:48:08.142Z,101529.25
2023-05-12T07:50:36.140Z,101530.09
2023-05-12T07:53:04.425Z,101533.38
2023-05-12T07:55:33.452Z,101536.69
2023-05-12T07:58:01.375Z,101538.31
2023-05-12T08:00:30.581Z,101530.00
2023-05-12T08:02:58.763Z,101533.50
2023-05-12T08:05:26.852Z,101538.69
2023-05-12T08:07:54.671Z,101543.28
2023-05-12T08:10:26.675Z,101542.22
2023-05-12T08:12:54.631Z,101544.69
2023-05-12T08:15:22.670Z,101550.69
2023-05-12T08:17:52.095Z,101547.19
2023-05-12T08:20:20.333Z,101550.69
2023-05-12T08:22:48.377Z,101549.66
2023-05-12T08:25:16.221Z,101555.88
2023-05-12T08:27:44.013Z,101556.00
2023-05-12T08:30:12.806Z,101560.59
2023-05-12T08:32:40.833Z,101552.34
2023-05-12T08:35:10.180Z,101549.41
2023-05-12T08:37:38.022Z,101564.97
2023-05-12T08:40:14.895Z,101561.44
2023-05-12T08:42:45.117Z,101554.97
2023-05-12T08:45:13.120Z,101566.41
2023-05-12T08:47:42.759Z,101566.31
2023-05-12T08:50:15.229Z,101575.47
2023-05-12T08:52:43.055Z,101578.19
2023-05-12T08:55:11.852Z,101574.66
2023-05-12T08:57:40.056Z,101571.25
2023-05-12T09:00:10.024Z,101576.66
2023-05-12T09:02:51.989Z,101585.38
2023-05-12T09:05:24.231Z,101581.28
2023-05-12T09:07:54.872Z,101584.69
2023-05-12T09:10:34.251Z,101585.06
2023-05-12T09:13:05.740Z,101589.66
2023-05-12T09:15:38.490Z,101586.13
2023-05-12T09:18:06.561Z,101588.00
2023-05-12T09:20:36.460Z,101586.47
2023-05-12T09:23:14.806Z,101594.38
2023-05-12T09:25:44.140Z,101592.72
2023-05-12T09:28:12.942Z,101596.47
2023-05-12T09:30:42.499Z,101590.59
2023-05-12T09:33:11.771Z,101594.38
2023-05-12T09:35:45.627Z,101600.59
2023-05-12T09:38:15.151Z,101600.97
2023-05-12T09:40:43.468Z,101599.22
2023-05-12T09:43:15.148Z,101604.03
2023-05-12T09:45:44.199Z,101602.16
2023-05-12T09:48:14.277Z,101597.56
2023-05-12T09:50:48.852Z,101606.75
2023-05-12T09:53:19.412Z,101609.44
2023-05-12T09:55:48.575Z,101605.22
2023-05-12T09:58:18.259Z,101605.00
2023-05-12T10:03:21.832Z,101608.06
2023-05-12T10:05:55.515Z,101607.81
2023-05-12T10:08:28.365Z,101607.59
2023-05-12T10:10:57.700Z,101609.47
2023-05-12T10:13:26.307Z,101605.72
2023-05-12T10:15:57.198Z,101614.66
2023-05-12T10:18:25.373Z,101609.59
2023-05-12T10:20:55.294Z,101605.16
2023-05-12T10:23:24.518Z,101601.72
2023-05-12T10:25:54.272Z,101618.69
2023-05-12T10:28:22.563Z,101611.38
2023-05-12T10:30:52.179Z,101611.38
2023-05-12T10:33:20.042Z,101608.44
2023-05-12T10:35:49.462Z,101618.22
2023-05-12T10:38:20.016Z,101604.31
2023-05-12T10:40:55.901Z,101608.81
2023-05-12T10:43:24.938Z,101589.97
2023-05-12T10:46:12.046Z,101608.94
2023-05-12T10:48:50.725Z,101614.72
2023-05-12T10:51:21.848Z,101619.66
2023-05-12T10:53:55.087Z,101611.06
2023-05-12T10:56:24.645Z,101603.31
2023-05-12T10:59:17.225Z,101611.19
2023-05-12T11:02:03.971Z,101621.44
2023-05-12T11:04:43.049Z,101611.66
2023-05-12T11:07:13.777Z,101619.31
2023-05-12T11:09:53.755Z,101617.56
2023-05-12T11:12:27.602Z,101625.22
2023-05-12T11:14:55.558Z,101631.94
2023-05-12T11:17:23.471Z,101630.41
2023-05-12T11:19:52.737Z,101635.34
2023-05-12T11:22:22.126Z,101641.84
2023-05-12T11:24:53.117Z,101643.25
2023-05-12T11:27:23.518Z,101623.09
2023-05-12T11:29:58.934Z,101638.41
2023-05-12T11:32:26.880Z,101649.38
2023-05-12T11:34:54.857Z,101646.66
2023-05-12T11:37:23.597Z,101640.41
2023-05-12T11:39:53.777Z,101645.25
2023-05-12T11:42:25.060Z,101642.31
2023-05-12T11:44:55.541Z,101639.34
2023-05-12T11:47:23.454Z,101647.72
2023-05-12T11:49:52.507Z,101634.75
2023-05-12T11:52:22.169Z,101647.03
2023-05-12T11:54:51.628Z,101657.84
2023-05-12T11:57:28.353Z,101655.16
2023-05-12T12:00:00.369Z,101653.25
2023-05-12T12:02:28.869Z,101661.16
2023-05-12T12:04:57.061Z,101653.16
2023-05-12T12:07:32.676Z,101671.66
2023-05-12T12:10:01.905Z,101669.75
2023-05-12T12:12:31.131Z,101660.09
2023-05-12T12:15:00.281Z,101677.41
2023-05-12T12:17:30.920Z,101676.13
2023-05-12T12:19:59.216Z,101681.91
2023-05-12T12:22:27.288Z,101684.59
2023-05-12T12:24:55.238Z,101681.91
2023-05-12T12:27:23.006Z,101683.31
2023-05-12T12:29:52.175Z,101688.81
2023-05-12T12:32:19.994Z,101691.19
2023-05-12T12:34:49.145Z,101689.53
2023-05-12T12:37:17.390Z,101693.31
2023-05-12T12:39:45.435Z,101698.50
2023-05-12T12:42:13.410Z,101698.50
2023-05-12T12:44:41.259Z,101698.28
2023-05-12T12:47:10.631Z,101691.78
2023-05-12T12:49:38.541Z,101696.97
2023-05-12T12:52:07.252Z,101699.69
2023-05-12T12:54:35.570Z,101698.72
2023-05-12T12:57:04.174Z,101698.25
2023-05-12T12:59:32.295Z,101699.31
2023-05-12T13:02:01.500Z,101686.47
2023-05-12T13:04:30.708Z,101697.78
2023-05-12T13:06:58.559Z,101704.25
2023-05-12T13:09:26.320Z,101700.50
2023-05-12T13:11:54.154Z,101705.09
2023-05-12T13:14:21.973Z,101705.31
2023-05-12T13:16:49.905Z,101706.50
2023-05-12T13:19:17.705Z,101709.22
2023-05-12T13:21:46.944Z,101714.63
2023-05-12T13:24:14.760Z,101709.22
2023-05-12T13:26:42.497Z,101709.22
2023-05-12T13:29:10.318Z,101706.50
2023-05-12T13:31:38.803Z,101702.47
2023-05-12T13:34:06.600Z,101707.91
2023-05-12T13:36:34.770Z,101703.56
2023-05-12T13:39:04.027Z,101697.28
2023-05-12T13:41:31.827Z,101699.53
2023-05-12T13:43:59.686Z,101701.19
2023-05-12T13:46:27.688Z,101696.59
2023-05-12T13:48:55.503Z,101707.44
2023-05-12T13:51:23.942Z,101702.59
2023-05-12T13:53:51.737Z,101707.78
2023-05-12T13:56:21.182Z,101700.22
2023-05-12T13:58:49.142Z,101703.75
2023-05-12T14:01:17.088Z,101697.50
2023-05-12T14:03:45.641Z,101694.31
2023-05-12T14:06:13.570Z,101702.47
2023-05-12T14:08:41.886Z,101697.03
2023-05-12T14:11:10.093Z,101694.31
2023-05-12T14:13:39.406Z,101700.09
2023-05-12T14:16:08.028Z,101701.75
2023-05-12T14:18:36.143Z,101705.28
2023-05-12T14:21:04.255Z,101693.59
2023-05-12T14:23:32.145Z,101693.72
2023-05-12T14:25:59.984Z,101698.31
2023-05-12T14:28:28.980Z,101696.19
2023-05-12T14:30:58.312Z,101696.19
2023-05-12T14:33:26.152Z,101704.66
2023-05-12T14:36:05.925Z,101698.41
2023-05-12T14:38:35.756Z,101704.09
2023-05-12T14:41:04.016Z,101696.53
2023-05-12T14:43:31.890Z,101692.50
2023-05-12T14:46:02.475Z,101694.72
2023-05-12T14:48:30.454Z,101702.63
2023-05-12T14:50:58.790Z,101702.63
2023-05-12T14:53:26.734Z,101700.06
2023-05-12T14:55:54.515Z,101702.38
2023-05-12T14:58:24.376Z,101705.44
2023-05-12T15:00:52.496Z,101712.53
2023-05-12T15:03:21.903Z,101711.69
2023-05-12T15:08:21.583Z,101711.94
2023-05-12T15:10:50.047Z,101704.03
2023-05-12T15:13:20.230Z,101700.25
2023-05-12T15:15:48.304Z,101691.28
2023-05-12T15:18:16.369Z,101705.44
2023-05-12T15:20:46.010Z,101702.72
2023-05-12T15:23:13.851Z,101710.63
2023-05-12T15:25:41.997Z,101705.44
2023-05-12T15:28:09.808Z,101713.59
2023-05-12T15:30:37.631Z,101712.28
2023-05-12T15:33:06.214Z,101711.78
2023-05-12T15:35:34.772Z,101702.50
2023-05-12T15:38:04.074Z,101713.72
2023-05-12T15:40:31.869Z,101713.00
2023-05-12T15:42:59.665Z,101721.41
2023-05-12T15:45:27.892Z,101716.22
2023-05-12T15:47:56.825Z,101720.22
2023-05-12T15:50:24.898Z,101723.19
2023-05-12T15:52:52.722Z,101724.50
2023-05-12T15:55:22.296Z,101729.09
2023-05-12T15:57:50.999Z,101727.22
2023-05-12T16:00:20.786Z,101719.06
2023-05-12T16:02:49.817Z,101725.91
2023-05-12T16:05:18.009Z,101714.22
2023-05-12T16:07:45.930Z,101722.38
2023-05-12T16:10:13.742Z,101715.03
2023-05-12T16:12:42.905Z,101716.09
2023-05-12T16:15:11.960Z,101721.31
2023-05-12T16:17:39.731Z,101708.53
2023-05-12T16:20:09.197Z,101721.88
2023-05-12T16:22:37.700Z,101760.47
2023-05-12T16:25:06.361Z,101747.72
2023-05-12T16:27:35.690Z,101767.09
2023-05-12T16:30:05.900Z,101779.59
2023-05-12T16:32:33.877Z,101781.47
2023-05-12T16:35:01.673Z,101781.38
2023-05-12T16:37:29.468Z,101783.53
2023-05-12T16:39:57.258Z,101783.75
2023-05-12T16:42:25.531Z,101782.09
2023-05-12T16:44:54.560Z,101774.09
2023-05-12T16:47:24.021Z,101780.13
2023-05-12T16:49:53.223Z,101776.00
2023-05-12T16:52:21.119Z,101767.25
2023-05-12T16:54:48.924Z,101766.69
2023-05-12T16:57:16.701Z,101771.53
2023-05-12T16:59:44.520Z,101752.75
2023-05-12T17:02:12.423Z,101750.28
2023-05-12T17:04:41.577Z,101752.41
2023-05-12T17:07:09.706Z,101755.38
2023-05-12T17:09:37.906Z,101750.19
2023-05-12T17:12:06.922Z,101756.69
2023-05-12T17:14:35.250Z,101760.47
2023-05-12T17:17:03.397Z,101758.81
2023-05-12T17:19:31.247Z,101757.97
2023-05-12T17:22:00.514Z,101757.97
2023-05-12T17:24:29.110Z,101751.72
2023-05-12T17:26:57.642Z,101742.75
2023-05-12T17:29:25.450Z,101750.91
2023-05-12T17:31:53.684Z,101753.88
2023-05-12T17:34:21.488Z,101757.63
2023-05-12T17:36:49.276Z,101757.50
2023-05-12T17:39:18.461Z,101765.19
2023-05-12T17:41:47.232Z,101790.69
2023-05-12T17:44:15.453Z,101794.44
2023-05-12T17:46:43.421Z,101797.38
2023-05-12T17:49:11.282Z,101795.75
2023-05-12T17:51:39.222Z,101797.03
2023-05-12T17:54:07.126Z,101801.41
2023-05-12T17:56:36.538Z,101799.75
2023-05-12T17:59:04.365Z,101795.16
2023-05-12T18:01:32.183Z,101800.81
2023-05-12T18:03:59.965Z,101804.59
2023-05-12T18:06:27.842Z,101799.41
2023-05-12T18:08:56.569Z,101802.94
2023-05-12T18:11:24.408Z,101805.06
2023-05-12T18:13:53.795Z,101809.69
2023-05-12T18:16:28.335Z,101810.75
2023-05-12T18:18:56.723Z,101815.34
2023-05-12T18:21:24.856Z,101813.69
2023-05-12T18:23:52.799Z,101807.44
2023-05-12T18:26:20.801Z,101800.47
2023-05-12T18:28:48.729Z,101807.69
2023-05-12T18:31:19.674Z,101799.78
2023-05-12T18:33:47.843Z,101799.19
2023-05-12T18:36:15.752Z,101798.13
2023-05-12T18:38:43.655Z,101793.53
2023-05-12T18:41:12.759Z,101783.03
2023-05-12T18:43:41.867Z,101795.41
2023-05-12T18:46:09.887Z,101796.47
2023-05-12T18:48:39.099Z,101797.53
2023-05-12T18:51:07.120Z,101797.53
2023-05-12T18:53:35.228Z,101798.59
2023-05-12T18:56:03.535Z,101798.59
2023-05-12T18:58:31.312Z,101795.88
2023-05-12T19:00:59.293Z,101799.41
2023-05-12T19:03:27.325Z,101801.31
2023-05-12T19:05:56.503Z,101808.63
2023-05-12T19:08:24.281Z,101814.06
2023-05-12T19:10:52.116Z,101816.75
2023-05-12T19:13:20.170Z,101825.97
2023-05-12T19:15:48.099Z,101827.84
2023-05-12T19:18:17.217Z,101834.09
2023-05-12T19:20:45.091Z,101844.97
2023-05-12T19:23:14.328Z,101842.47
2023-05-12T19:25:43.551Z,101849.78
2023-05-12T19:28:11.970Z,101849.22
2023-05-12T19:30:39.805Z,101849.22
2023-05-12T19:33:07.802Z,101846.50
2023-05-12T19:35:36.228Z,101845.06
2023-05-12T19:38:04.282Z,101841.66
2023-05-12T19:40:33.543Z,101852.38
2023-05-12T19:43:01.979Z,101864.31
2023-05-12T19:45:30.084Z,101865.13
2023-05-12T19:47:58.235Z,101859.22
2023-05-12T19:50:26.410Z,101874.56
2023-05-12T19:52:54.252Z,101877.28
2023-05-12T19:55:22.366Z,101873.72
2023-05-12T19:57:52.783Z,101872.09
2023-05-12T20:00:22.176Z,101879.41
2023-05-12T20:02:50.451Z,101884.00
2023-05-12T20:05:18.577Z,101885.06
2023-05-12T20:07:46.391Z,101877.97
2023-05-12T20:10:14.154Z,101888.00
2023-05-12T20:12:42.123Z,101885.28
2023-05-12T20:15:12.352Z,101889.06
2023-05-12T20:17:40.156Z,101902.63
2023-05-12T20:20:11.405Z,101904.50
2023-05-12T20:22:39.288Z,101898.25
2023-05-12T20:25:07.853Z,101904.75
2023-05-12T20:27:35.630Z,101905.81
2023-05-12T20:30:03.467Z,101904.16
2023-05-12T20:32:33.470Z,101906.88
2023-05-12T20:35:01.469Z,101911.47
2023-05-12T20:37:29.257Z,101912.53
2023-05-12T20:39:57.094Z,101914.41
2023-05-12T20:42:24.948Z,101916.28
2023-05-12T20:44:53.785Z,101916.53
2023-05-12T20:47:21.605Z,101901.09
2023-05-12T20:49:56.015Z,101915.69
2023-05-12T20:52:24.726Z,101917.81
2023-05-12T20:54:57.932Z,101930.56
2023-05-12T20:57:25.762Z,101924.31
2023-05-12T20:59:56.706Z,101920.75
2023-05-12T21:02:25.128Z,101912.97
2023-05-12T21:04:55.217Z,101928.91
2023-05-12T21:07:23.179Z,101917.47
2023-05-12T21:09:51.015Z,101922.28
2023-05-12T21:12:18.771Z,101919.56
2023-05-12T21:14:46.590Z,101924.16
2023-05-12T21:17:14.825Z,101926.28
2023-05-12T21:19:44.020Z,101928.19
2023-05-12T21:22:13.267Z,101930.06
2023-05-12T21:24:42.035Z,101922.97
2023-05-12T21:27:10.017Z,101924.03
2023-05-12T21:29:38.189Z,101924.03
2023-05-12T21:32:06.883Z,101923.44
2023-05-12T21:34:36.111Z,101926.16
2023-05-12T21:37:04.084Z,101925.31
2023-05-12T21:39:33.215Z,101922.84
2023-05-12T21:42:01.115Z,101931.22
2023-05-12T21:44:28.866Z,101926.63
2023-05-12T21:46:58.618Z,101931.22
2023-05-12T21:49:26.874Z,101928.72
2023-05-12T21:51:55.987Z,101936.03
2023-05-12T21:54:23.808Z,101935.22
2023-05-12T21:56:53.184Z,101931.69
2023-05-12T21:59:20.948Z,101930.84
2023-05-12T22:01:48.834Z,101920.69
2023-05-12T22:04:16.706Z,101934.63
2023-05-12T22:06:44.555Z,101932.72
2023-05-12T22:09:12.830Z,101932.13
2023-05-12T22:11:40.804Z,101929.44
2023-05-12T22:14:10.249Z,101923.41
2023-05-12T22:16:41.836Z,101929.66
2023-05-12T22:19:10.628Z,101929.66
2023-05-12T22:21:38.732Z,101935.31
2023-05-12T22:24:07.158Z,101938.25
2023-05-12T22:26:34.993Z,101936.38
2023-05-12T22:29:02.895Z,101940.97
2023-05-12T22:31:32.164Z,101944.72
2023-05-12T22:34:00.165Z,101938.72
2023-05-12T22:36:27.986Z,101944.97
2023-05-12T22:38:55.772Z,101950.59
2023-05-12T22:41:23.581Z,101945.19
2023-05-12T22:43:51.545Z,101948.97
2023-05-12T22:46:19.384Z,101943.75
2023-05-12T22:48:48.550Z,101941.28
2023-05-12T22:51:16.328Z,101953.19
2023-05-12T22:53:44.130Z,101957.78
2023-05-12T22:56:11.921Z,101956.94
2023-05-12T22:58:39.710Z,101953.41
2023-05-12T23:01:07.539Z,101951.97
2023-05-12T23:03:35.450Z,101950.34
2023-05-12T23:06:04.806Z,101945.13
2023-05-12T23:08:32.611Z,101948.91
2023-05-12T23:11:00.672Z,101947.25
2023-05-12T23:13:28.473Z,101933.44
2023-05-12T23:15:56.510Z,101948.31
2023-05-12T23:18:24.447Z,101946.88
2023-05-12T23:20:52.326Z,101956.66
2023-05-12T23:23:21.494Z,101955.00
2023-05-12T23:25:49.470Z,101951.69
2023-05-12T23:28:17.294Z,101950.06
2023-05-12T23:30:45.087Z,101956.28
2023-05-12T23:33:13.037Z,101957.34
2023-05-12T23:35:40.841Z,101952.16
2023-05-12T23:38:08.659Z,101951.38
2023-05-12T23:40:39.324Z,101952.66
2023-05-12T23:43:07.222Z,101957.84
2023-05-12T23:45:35.491Z,101950.75
2023-05-12T23:48:03.350Z,101949.31
2023-05-12T23:50:31.166Z,101956.38
2023-05-12T23:52:59.213Z,101954.72
2023-05-12T23:55:27.008Z,101958.50
2023-05-12T23:57:56.130Z,101953.06
